SBSN/STM METAR and TAF weather

Enter ICAO airport designator
Station Type Date Time Source
SBSN METAR 2021/03/06 04:00 UTC NOAA

SBSN 060400Z 10002KT 9999 VCSH FEW013 SCT016 BKN073 26/25 Q1010


Station Type Date Time Source
SBSN Decoded METAR 2021/03/06 04:00 UTC NOAA

Santarem-Aeroporto, Brazil (SBSN) 02-26S 054-43W 72M
Mar 05, 2021 - 11:00 PM EST / 2021.03.06 0400 UTC
Wind: from the E (100 degrees) at 2 MPH (2 KT):0
Visibility: greater than 7 mile(s):0
Sky conditions: mostly cloudy
Weather: showers in the vicinity
Temperature: 78 F (26 C)
Dew Point: 77 F (25 C)
Relative Humidity: 94%
Pressure (altimeter): 29.83 in. Hg (1010 hPa)
ob: SBSN 060400Z 10002KT 9999 VCSH FEW013 SCT016 BKN073 26/25 Q1010
cycle: 4

Station Type Date Time Source
SBSN TAF 2021/03/06 06:36 UTC NOAA

TAF SBSN 060230Z 0606/0706 10010KT 6000 BKN012 FEW025TCU TN24/0608Z TX29/0620Z PROB40
TEMPO 0606/0612 4000 SHRA
BECMG 0612/0614 08007KT 9999 SCT017
BECMG 0616/0618 11010KT 8000 BKN020 FEW025TCU PROB40 0618/0621 10015KT 5000 TSRA BKN015 FEW025CB
BECMG 0622/0701 9999 FEW020
RMK PGB

Example: see airport list